createdAt,value
2023-05-27T00:04:25.898Z,11.80
2023-05-27T00:09:35.618Z,11.90
2023-05-27T00:14:37.531Z,10.80
2023-05-27T00:19:45.245Z,11.00
2023-05-27T00:24:50.120Z,11.20
2023-05-27T00:30:05.051Z,9.10
2023-05-27T00:35:10.992Z,10.40
2023-05-27T00:40:15.876Z,14.30
2023-05-27T00:45:17.922Z,12.10
2023-05-27T00:56:01.385Z,13.50
2023-05-27T01:01:26.028Z,12.00
2023-05-27T01:06:37.380Z,10.50
2023-05-27T01:11:55.190Z,11.80
2023-05-27T01:17:09.274Z,10.50
2023-05-27T01:22:15.219Z,17.20
2023-05-27T01:27:37.477Z,11.50
2023-05-27T01:33:02.550Z,10.90
2023-05-27T01:38:19.135Z,13.90
2023-05-27T01:43:49.165Z,11.90
2023-05-27T01:49:31.716Z,12.50
2023-05-27T01:54:58.776Z,11.50
2023-05-27T02:00:43.650Z,13.20
2023-05-27T02:05:48.174Z,14.80
2023-05-27T02:11:01.436Z,12.10
2023-05-27T02:16:06.856Z,14.20
2023-05-27T02:21:29.418Z,14.80
2023-05-27T02:26:45.907Z,9.70
2023-05-27T02:31:50.724Z,13.90
2023-05-27T02:37:26.178Z,12.90
2023-05-27T02:48:27.360Z,11.70
2023-05-27T02:53:51.562Z,11.40
2023-05-27T02:58:55.918Z,12.90
2023-05-27T03:04:18.491Z,12.20
2023-05-27T03:14:24.941Z,17.00
2023-05-27T03:19:28.319Z,11.40
2023-05-27T03:24:34.220Z,11.90
2023-05-27T03:30:03.428Z,15.40
2023-05-27T03:35:06.106Z,13.70
2023-05-27T03:40:18.880Z,10.20
2023-05-27T03:45:26.031Z,14.40
2023-05-27T03:50:43.683Z,10.90
2023-05-27T03:56:06.419Z,12.90
2023-05-27T04:01:24.264Z,14.90
2023-05-27T04:06:45.097Z,14.10
2023-05-27T04:12:06.669Z,13.50
2023-05-27T04:17:11.923Z,10.50
2023-05-27T04:22:19.424Z,14.60
2023-05-27T04:27:25.529Z,11.60
2023-05-27T04:32:38.119Z,12.80
2023-05-27T04:37:48.345Z,13.40
2023-05-27T04:43:03.749Z,16.80
2023-05-27T04:48:26.797Z,14.20
2023-05-27T04:53:29.078Z,14.50
2023-05-27T04:58:46.871Z,14.30
2023-05-27T05:04:15.013Z,11.60
2023-05-27T05:09:26.635Z,13.40
2023-05-27T05:14:28.938Z,10.90
2023-05-27T05:19:46.264Z,10.00
2023-05-27T05:24:49.794Z,11.80
2023-05-27T05:30:22.873Z,11.30
2023-05-27T05:35:28.777Z,9.80
2023-05-27T05:40:40.439Z,10.00
2023-05-27T05:45:49.832Z,5.70
2023-05-27T05:50:54.169Z,9.60
2023-05-27T05:56:22.253Z,7.10
2023-05-27T06:01:27.621Z,6.90
2023-05-27T06:06:50.693Z,12.00
2023-05-27T06:12:12.986Z,5.90
2023-05-27T06:17:22.013Z,7.30
2023-05-27T06:22:44.484Z,6.50
2023-05-27T06:28:42.125Z,7.60
2023-05-27T06:33:44.584Z,4.50
2023-05-27T06:38:49.798Z,6.40
2023-05-27T06:43:52.226Z,8.50
2023-05-27T06:49:32.865Z,5.30
2023-05-27T06:54:37.628Z,5.20
2023-05-27T07:00:08.803Z,10.50
2023-05-27T07:05:17.170Z,5.20
2023-05-27T07:10:24.668Z,5.70
2023-05-27T07:15:31.462Z,5.90
2023-05-27T07:20:35.108Z,5.90
2023-05-27T07:25:38.817Z,5.10
2023-05-27T07:30:41.255Z,4.50
2023-05-27T07:35:45.872Z,5.20
2023-05-27T07:45:50.719Z,8.80
2023-05-27T07:50:52.968Z,5.00
2023-05-27T07:55:55.237Z,6.30
2023-05-27T08:00:57.743Z,4.60
2023-05-27T08:06:00.332Z,6.50
2023-05-27T08:11:16.580Z,5.50
2023-05-27T08:16:30.805Z,5.70
2023-05-27T08:21:43.806Z,3.10
2023-05-27T08:27:01.353Z,5.50
2023-05-27T08:32:14.240Z,4.80
2023-05-27T08:37:16.481Z,5.40
2023-05-27T08:42:19.878Z,4.70
2023-05-27T08:47:21.811Z,4.10
2023-05-27T08:52:27.388Z,3.60
2023-05-27T08:57:30.845Z,5.20
2023-05-27T09:02:33.025Z,3.20
2023-05-27T09:07:35.051Z,2.20
2023-05-27T09:12:37.157Z,5.20
2023-05-27T09:17:42.944Z,4.80
2023-05-27T09:22:45.058Z,2.90
2023-05-27T09:27:47.211Z,2.90
2023-05-27T09:37:51.568Z,3.60
2023-05-27T09:42:54.304Z,2.70
2023-05-27T09:47:58.559Z,3.10
2023-05-27T09:53:10.907Z,1.90
2023-05-27T09:58:14.911Z,4.00
2023-05-27T10:03:20.946Z,2.20
2023-05-27T10:08:26.500Z,2.30
2023-05-27T10:13:30.138Z,3.30
2023-05-27T10:18:34.553Z,4.20
2023-05-27T10:23:36.901Z,3.60
2023-05-27T10:28:43.552Z,4.60
2023-05-27T10:33:49.147Z,3.80
2023-05-27T10:38:57.699Z,2.30
2023-05-27T10:44:00.415Z,2.40
2023-05-27T10:49:36.177Z,3.40
2023-05-27T10:54:38.781Z,4.40
2023-05-27T10:59:57.725Z,4.00
2023-05-27T11:05:01.613Z,4.00
2023-05-27T11:10:05.068Z,2.30
2023-05-27T11:15:07.253Z,3.10
2023-05-27T11:25:14.064Z,5.40
2023-05-27T11:30:16.962Z,3.30
2023-05-27T11:35:19.597Z,3.10
2023-05-27T11:40:21.785Z,4.50
2023-05-27T11:45:23.885Z,2.90
2023-05-27T11:50:27.916Z,3.70
2023-05-27T11:55:30.713Z,3.00
2023-05-27T12:00:32.593Z,2.20
2023-05-27T12:05:35.709Z,2.80
2023-05-27T12:10:37.761Z,5.30
2023-05-27T12:15:39.687Z,2.30
2023-05-27T12:20:42.317Z,4.20
2023-05-27T12:25:44.203Z,4.30
2023-05-27T12:30:47.839Z,3.70
2023-05-27T12:35:49.983Z,2.20
2023-05-27T12:40:52.900Z,4.50
2023-05-27T12:45:54.753Z,3.90
2023-05-27T12:50:56.573Z,5.30
2023-05-27T12:55:59.305Z,6.90
2023-05-27T13:01:01.201Z,2.40
2023-05-27T13:06:03.168Z,1.90
2023-05-27T13:11:05.142Z,2.70
2023-05-27T13:16:07.373Z,3.40
2023-05-27T13:21:09.597Z,3.80
2023-05-27T13:26:12.180Z,4.40
2023-05-27T13:31:14.920Z,2.30
2023-05-27T13:36:16.811Z,2.70
2023-05-27T13:41:18.579Z,1.60
2023-05-27T13:46:20.703Z,2.90
2023-05-27T13:56:25.571Z,1.50
2023-05-27T14:01:27.490Z,4.00
2023-05-27T14:06:30.268Z,5.50
2023-05-27T14:11:32.089Z,4.60
2023-05-27T14:16:34.158Z,2.90
2023-05-27T14:21:35.988Z,3.60
2023-05-27T14:26:38.416Z,3.20
2023-05-27T14:31:40.532Z,2.80
2023-05-27T14:36:42.595Z,3.00
2023-05-27T14:41:44.454Z,5.00
2023-05-27T14:46:46.548Z,3.00
2023-05-27T14:56:50.588Z,7.40
2023-05-27T15:01:52.308Z,3.70
2023-05-27T15:06:54.058Z,4.70
2023-05-27T15:11:55.949Z,4.40
2023-05-27T15:16:57.791Z,3.10
2023-05-27T15:21:59.846Z,3.60
2023-05-27T15:27:05.888Z,3.90
2023-05-27T15:32:08.145Z,3.40
2023-05-27T15:37:10.115Z,2.40
2023-05-27T15:42:12.112Z,4.90
2023-05-27T15:47:14.189Z,4.50
2023-05-27T15:57:18.964Z,4.50
2023-05-27T16:07:23.048Z,5.00
2023-05-27T16:12:25.614Z,3.70
2023-05-27T16:17:29.131Z,9.20
2023-05-27T16:22:31.594Z,5.70
2023-05-27T16:32:35.361Z,2.50
2023-05-27T16:42:41.163Z,4.60
2023-05-27T16:47:43.120Z,4.00
2023-05-27T16:52:45.405Z,4.20
2023-05-27T16:57:47.366Z,3.10
2023-05-27T17:02:49.274Z,2.30
2023-05-27T17:12:53.489Z,3.70
2023-05-27T17:17:55.862Z,2.80
2023-05-27T17:22:58.203Z,4.50
2023-05-27T17:28:00.143Z,5.20
2023-05-27T17:33:02.460Z,3.20
2023-05-27T17:38:05.075Z,4.00
2023-05-27T17:48:12.762Z,4.80
2023-05-27T17:53:15.012Z,2.80
2023-05-27T18:03:19.442Z,4.10
2023-05-27T18:08:22.910Z,4.20
2023-05-27T18:13:26.283Z,3.40
2023-05-27T18:18:29.836Z,3.80
2023-05-27T18:23:35.186Z,4.80
2023-05-27T18:28:37.215Z,2.30
2023-05-27T18:39:02.205Z,1.60
2023-05-27T18:44:07.299Z,4.80
2023-05-27T18:49:12.648Z,3.10
2023-05-27T18:54:15.804Z,4.50
2023-05-27T18:59:28.965Z,3.20
2023-05-27T19:10:04.305Z,3.30
2023-05-27T19:15:07.690Z,7.40
2023-05-27T19:20:10.585Z,3.50
2023-05-27T19:25:12.873Z,4.10
2023-05-27T19:30:17.990Z,3.10
2023-05-27T19:35:20.469Z,5.60
2023-05-27T19:40:23.465Z,5.90
2023-05-27T19:45:25.849Z,5.50
2023-05-27T19:50:28.937Z,6.00
2023-05-27T19:55:31.208Z,7.80
2023-05-27T20:00:33.549Z,5.70
2023-05-27T20:05:35.839Z,4.70
2023-05-27T20:10:40.523Z,5.80
2023-05-27T20:15:42.759Z,5.20
2023-05-27T20:20:48.590Z,8.00
2023-05-27T20:25:51.229Z,11.60
2023-05-27T20:30:54.946Z,8.10
2023-05-27T20:35:57.317Z,7.00
2023-05-27T20:40:59.507Z,5.90
2023-05-27T20:46:01.699Z,4.50
2023-05-27T20:51:06.619Z,8.30
2023-05-27T20:56:08.559Z,8.40
2023-05-27T21:01:10.399Z,5.40
2023-05-27T21:06:27.748Z,6.20
2023-05-27T21:11:30.295Z,8.40
2023-05-27T21:16:35.448Z,5.10
2023-05-27T21:21:37.477Z,6.80
2023-05-27T21:26:39.891Z,8.50
2023-05-27T21:36:49.453Z,6.00
2023-05-27T21:41:57.408Z,7.20
2023-05-27T21:47:02.740Z,4.60
2023-05-27T21:57:29.919Z,6.10
2023-05-27T22:02:56.066Z,6.30
2023-05-27T22:08:07.662Z,6.90
2023-05-27T22:13:10.066Z,4.40
2023-05-27T22:18:17.836Z,5.10
2023-05-27T22:23:20.900Z,7.70
2023-05-27T22:28:30.490Z,6.00
2023-05-27T22:33:32.887Z,6.10
2023-05-27T22:38:47.534Z,7.80
2023-05-27T22:43:57.544Z,7.50
2023-05-27T22:49:30.097Z,6.30
2023-05-27T22:54:55.295Z,8.60
2023-05-27T23:00:37.989Z,4.80
2023-05-27T23:06:41.890Z,7.90
2023-05-27T23:11:49.887Z,7.10
2023-05-27T23:21:57.865Z,6.80
2023-05-27T23:27:00.087Z,6.20
2023-05-27T23:37:24.385Z,6.80
2023-05-27T23:42:26.386Z,9.60
2023-05-27T23:47:48.561Z,9.60
2023-05-27T23:52:53.549Z,4.80
2023-05-27T23:57:58.163Z,6.50
